sensor_id;sensor_type;location;lat;lon;timestamp;P1;durP1;ratioP1;P2;durP2;ratioP2
54795;SDS011;40693;43.884;20.340;2023-12-04T00:00:46;67.23;;;34.43;;
54795;SDS011;40693;43.884;20.340;2023-12-04T00:03:12;61.80;;;33.53;;
54795;SDS011;40693;43.884;20.340;2023-12-04T00:05:38;71.17;;;37.10;;
54795;SDS011;40693;43.884;20.340;2023-12-04T00:08:07;80.07;;;41.03;;
54795;SDS011;40693;43.884;20.340;2023-12-04T00:10:32;76.77;;;39.80;;
54795;SDS011;40693;43.884;20.340;2023-12-04T00:12:58;74.10;;;36.03;;
54795;SDS011;40693;43.884;20.340;2023-12-04T00:15:24;86.43;;;41.27;;
54795;SDS011;40693;43.884;20.340;2023-12-04T00:17:49;126.73;;;61.80;;
54795;SDS011;40693;43.884;20.340;2023-12-04T00:20:15;76.77;;;41.10;;
54795;SDS011;40693;43.884;20.340;2023-12-04T00:22:41;62.97;;;33.27;;
54795;SDS011;40693;43.884;20.340;2023-12-04T00:25:07;41.40;;;24.77;;
54795;SDS011;40693;43.884;20.340;2023-12-04T00:27:33;64.17;;;34.30;;
54795;SDS011;40693;43.884;20.340;2023-12-04T00:29:59;39.70;;;23.10;;
54795;SDS011;40693;43.884;20.340;2023-12-04T00:32:24;32.57;;;16.83;;
54795;SDS011;40693;43.884;20.340;2023-12-04T00:34:50;31.17;;;18.20;;
54795;SDS011;40693;43.884;20.340;2023-12-04T00:37:16;35.07;;;18.80;;
54795;SDS011;40693;43.884;20.340;2023-12-04T00:39:42;24.53;;;16.17;;
54795;SDS011;40693;43.884;20.340;2023-12-04T00:42:08;22.77;;;14.77;;
54795;SDS011;40693;43.884;20.340;2023-12-04T00:44:33;26.00;;;15.50;;
54795;SDS011;40693;43.884;20.340;2023-12-04T00:46:59;30.30;;;16.27;;
54795;SDS011;40693;43.884;20.340;2023-12-04T00:49:25;27.00;;;16.87;;
54795;SDS011;40693;43.884;20.340;2023-12-04T00:51:51;29.13;;;16.97;;
54795;SDS011;40693;43.884;20.340;2023-12-04T00:54:16;37.07;;;22.13;;
54795;SDS011;40693;43.884;20.340;2023-12-04T00:56:42;32.30;;;18.20;;
54795;SDS011;40693;43.884;20.340;2023-12-04T00:59:08;35.97;;;21.53;;
54795;SDS011;40693;43.884;20.340;2023-12-04T01:01:38;34.57;;;18.90;;
54795;SDS011;40693;43.884;20.340;2023-12-04T01:04:03;33.07;;;18.43;;
54795;SDS011;40693;43.884;20.340;2023-12-04T01:06:29;35.10;;;20.80;;
54795;SDS011;40693;43.884;20.340;2023-12-04T01:08:55;36.53;;;20.37;;
54795;SDS011;40693;43.884;20.340;2023-12-04T01:11:21;39.10;;;21.17;;
54795;SDS011;40693;43.884;20.340;2023-12-04T01:13:48;44.07;;;23.47;;
54795;SDS011;40693;43.884;20.340;2023-12-04T01:16:14;39.00;;;21.17;;
54795;SDS011;40693;43.884;20.340;2023-12-04T01:18:40;55.07;;;27.83;;
54795;SDS011;40693;43.884;20.340;2023-12-04T01:21:07;49.60;;;26.77;;
54795;SDS011;40693;43.884;20.340;2023-12-04T01:23:36;31.27;;;18.37;;
54795;SDS011;40693;43.884;20.340;2023-12-04T01:26:02;40.77;;;21.80;;
54795;SDS011;40693;43.884;20.340;2023-12-04T01:28:29;36.53;;;18.80;;
54795;SDS011;40693;43.884;20.340;2023-12-04T01:30:55;32.93;;;19.53;;
54795;SDS011;40693;43.884;20.340;2023-12-04T01:33:21;36.97;;;21.00;;
54795;SDS011;40693;43.884;20.340;2023-12-04T01:35:47;36.00;;;19.33;;
54795;SDS011;40693;43.884;20.340;2023-12-04T01:38:12;39.70;;;20.43;;
54795;SDS011;40693;43.884;20.340;2023-12-04T01:40:38;74.43;;;33.50;;
54795;SDS011;40693;43.884;20.340;2023-12-04T01:43:04;35.13;;;19.37;;
54795;SDS011;40693;43.884;20.340;2023-12-04T01:45:30;33.50;;;18.70;;
54795;SDS011;40693;43.884;20.340;2023-12-04T01:47:56;57.53;;;26.37;;
54795;SDS011;40693;43.884;20.340;2023-12-04T01:50:23;63.90;;;31.03;;
54795;SDS011;40693;43.884;20.340;2023-12-04T01:52:50;77.83;;;31.87;;
54795;SDS011;40693;43.884;20.340;2023-12-04T01:55:17;60.10;;;29.10;;
54795;SDS011;40693;43.884;20.340;2023-12-04T01:57:44;61.90;;;29.67;;
54795;SDS011;40693;43.884;20.340;2023-12-04T02:00:10;66.67;;;35.37;;
54795;SDS011;40693;43.884;20.340;2023-12-04T02:02:40;72.80;;;40.30;;
54795;SDS011;40693;43.884;20.340;2023-12-04T02:07:34;74.70;;;33.83;;
54795;SDS011;40693;43.884;20.340;2023-12-04T02:10:02;67.77;;;32.07;;
54795;SDS011;40693;43.884;20.340;2023-12-04T02:12:28;54.47;;;28.87;;
54795;SDS011;40693;43.884;20.340;2023-12-04T02:14:55;47.80;;;26.40;;
54795;SDS011;40693;43.884;20.340;2023-12-04T02:17:22;46.50;;;26.07;;
54795;SDS011;40693;43.884;20.340;2023-12-04T02:19:48;33.30;;;19.80;;
54795;SDS011;40693;43.884;20.340;2023-12-04T02:22:14;30.93;;;16.67;;
54795;SDS011;40693;43.884;20.340;2023-12-04T02:24:39;34.67;;;18.97;;
54795;SDS011;40693;43.884;20.340;2023-12-04T02:29:43;43.40;;;22.03;;
54795;SDS011;40693;43.884;20.340;2023-12-04T02:32:14;48.37;;;28.77;;
54795;SDS011;40693;43.884;20.340;2023-12-04T02:34:42;45.67;;;22.73;;
54795;SDS011;40693;43.884;20.340;2023-12-04T02:37:10;31.63;;;17.10;;
54795;SDS011;40693;43.884;20.340;2023-12-04T02:39:38;39.30;;;22.10;;
54795;SDS011;40693;43.884;20.340;2023-12-04T02:42:04;36.93;;;21.30;;
54795;SDS011;40693;43.884;20.340;2023-12-04T02:44:29;27.27;;;16.37;;
54795;SDS011;40693;43.884;20.340;2023-12-04T02:46:55;31.93;;;17.40;;
54795;SDS011;40693;43.884;20.340;2023-12-04T02:49:21;30.90;;;16.67;;
54795;SDS011;40693;43.884;20.340;2023-12-04T02:51:47;25.07;;;14.07;;
54795;SDS011;40693;43.884;20.340;2023-12-04T02:54:13;20.70;;;12.10;;
54795;SDS011;40693;43.884;20.340;2023-12-04T02:56:38;22.83;;;12.67;;
54795;SDS011;40693;43.884;20.340;2023-12-04T02:59:04;21.77;;;12.43;;
54795;SDS011;40693;43.884;20.340;2023-12-04T03:01:30;22.17;;;12.23;;
54795;SDS011;40693;43.884;20.340;2023-12-04T03:03:55;24.00;;;14.10;;
54795;SDS011;40693;43.884;20.340;2023-12-04T03:06:21;23.80;;;12.70;;
54795;SDS011;40693;43.884;20.340;2023-12-04T03:08:48;26.83;;;15.07;;
54795;SDS011;40693;43.884;20.340;2023-12-04T03:11:13;24.17;;;13.90;;
54795;SDS011;40693;43.884;20.340;2023-12-04T03:13:39;24.63;;;14.27;;
54795;SDS011;40693;43.884;20.340;2023-12-04T03:16:05;25.13;;;16.37;;
54795;SDS011;40693;43.884;20.340;2023-12-04T03:18:31;27.33;;;15.03;;
54795;SDS011;40693;43.884;20.340;2023-12-04T03:20:57;24.93;;;15.73;;
54795;SDS011;40693;43.884;20.340;2023-12-04T03:23:22;26.10;;;15.43;;
54795;SDS011;40693;43.884;20.340;2023-12-04T03:25:48;34.67;;;21.90;;
54795;SDS011;40693;43.884;20.340;2023-12-04T03:28:14;31.20;;;17.83;;
54795;SDS011;40693;43.884;20.340;2023-12-04T03:30:40;35.17;;;20.40;;
54795;SDS011;40693;43.884;20.340;2023-12-04T03:33:10;23.67;;;13.43;;
54795;SDS011;40693;43.884;20.340;2023-12-04T03:35:36;29.97;;;15.77;;
54795;SDS011;40693;43.884;20.340;2023-12-04T03:38:01;25.50;;;14.50;;
54795;SDS011;40693;43.884;20.340;2023-12-04T03:40:27;21.70;;;12.20;;
54795;SDS011;40693;43.884;20.340;2023-12-04T03:42:53;23.43;;;13.10;;
54795;SDS011;40693;43.884;20.340;2023-12-04T03:45:19;27.80;;;14.20;;
54795;SDS011;40693;43.884;20.340;2023-12-04T03:47:44;18.63;;;10.93;;
54795;SDS011;40693;43.884;20.340;2023-12-04T03:50:10;21.50;;;11.63;;
54795;SDS011;40693;43.884;20.340;2023-12-04T03:52:36;21.13;;;11.73;;
54795;SDS011;40693;43.884;20.340;2023-12-04T03:55:01;20.47;;;11.93;;
54795;SDS011;40693;43.884;20.340;2023-12-04T03:57:28;23.93;;;13.17;;
54795;SDS011;40693;43.884;20.340;2023-12-04T03:59:54;30.10;;;17.30;;
54795;SDS011;40693;43.884;20.340;2023-12-04T04:02:19;29.90;;;16.57;;
54795;SDS011;40693;43.884;20.340;2023-12-04T04:04:45;29.93;;;15.77;;
54795;SDS011;40693;43.884;20.340;2023-12-04T04:07:11;23.90;;;14.97;;
54795;SDS011;40693;43.884;20.340;2023-12-04T04:09:37;29.33;;;14.60;;
54795;SDS011;40693;43.884;20.340;2023-12-04T04:12:02;21.63;;;12.20;;
54795;SDS011;40693;43.884;20.340;2023-12-04T04:14:29;18.83;;;11.27;;
54795;SDS011;40693;43.884;20.340;2023-12-04T04:16:55;22.00;;;12.10;;
54795;SDS011;40693;43.884;20.340;2023-12-04T04:19:20;14.77;;;9.87;;
54795;SDS011;40693;43.884;20.340;2023-12-04T04:21:46;18.63;;;10.77;;
54795;SDS011;40693;43.884;20.340;2023-12-04T04:24:12;18.67;;;11.37;;
54795;SDS011;40693;43.884;20.340;2023-12-04T04:26:38;21.57;;;11.70;;
54795;SDS011;40693;43.884;20.340;2023-12-04T04:29:03;18.43;;;10.47;;
54795;SDS011;40693;43.884;20.340;2023-12-04T04:31:29;21.30;;;11.73;;
54795;SDS011;40693;43.884;20.340;2023-12-04T04:33:55;25.97;;;12.77;;
54795;SDS011;40693;43.884;20.340;2023-12-04T04:36:21;23.90;;;12.13;;
54795;SDS011;40693;43.884;20.340;2023-12-04T04:38:47;22.50;;;11.43;;
54795;SDS011;40693;43.884;20.340;2023-12-04T04:41:13;22.97;;;12.13;;
54795;SDS011;40693;43.884;20.340;2023-12-04T04:43:40;30.80;;;15.73;;
54795;SDS011;40693;43.884;20.340;2023-12-04T04:46:06;22.23;;;12.60;;
54795;SDS011;40693;43.884;20.340;2023-12-04T04:48:32;25.70;;;12.67;;
54795;SDS011;40693;43.884;20.340;2023-12-04T04:50:57;24.90;;;12.13;;
54795;SDS011;40693;43.884;20.340;2023-12-04T04:53:23;19.53;;;10.47;;
54795;SDS011;40693;43.884;20.340;2023-12-04T04:55:49;20.90;;;13.00;;
54795;SDS011;40693;43.884;20.340;2023-12-04T04:58:15;23.63;;;13.10;;
54795;SDS011;40693;43.884;20.340;2023-12-04T05:00:41;27.07;;;14.23;;
54795;SDS011;40693;43.884;20.340;2023-12-04T05:03:08;23.73;;;13.83;;
54795;SDS011;40693;43.884;20.340;2023-12-04T05:05:34;27.17;;;14.97;;
54795;SDS011;40693;43.884;20.340;2023-12-04T05:07:59;26.47;;;15.50;;
54795;SDS011;40693;43.884;20.340;2023-12-04T05:10:25;27.47;;;16.60;;
54795;SDS011;40693;43.884;20.340;2023-12-04T05:12:51;36.27;;;19.43;;
54795;SDS011;40693;43.884;20.340;2023-12-04T05:15:17;30.50;;;16.43;;
54795;SDS011;40693;43.884;20.340;2023-12-04T05:17:42;28.07;;;16.20;;
54795;SDS011;40693;43.884;20.340;2023-12-04T05:20:08;42.77;;;22.83;;
54795;SDS011;40693;43.884;20.340;2023-12-04T05:22:34;39.87;;;21.67;;
54795;SDS011;40693;43.884;20.340;2023-12-04T05:25:00;27.83;;;16.67;;
54795;SDS011;40693;43.884;20.340;2023-12-04T05:27:26;30.40;;;16.97;;
54795;SDS011;40693;43.884;20.340;2023-12-04T05:29:52;34.20;;;18.17;;
54795;SDS011;40693;43.884;20.340;2023-12-04T05:32:18;33.50;;;16.77;;
54795;SDS011;40693;43.884;20.340;2023-12-04T05:34:43;35.67;;;18.50;;
54795;SDS011;40693;43.884;20.340;2023-12-04T05:37:09;31.63;;;18.67;;
54795;SDS011;40693;43.884;20.340;2023-12-04T05:39:35;37.97;;;19.43;;
54795;SDS011;40693;43.884;20.340;2023-12-04T05:42:01;35.87;;;19.63;;
54795;SDS011;40693;43.884;20.340;2023-12-04T05:44:26;36.73;;;20.20;;
54795;SDS011;40693;43.884;20.340;2023-12-04T05:46:52;40.10;;;22.50;;
54795;SDS011;40693;43.884;20.340;2023-12-04T05:49:18;41.13;;;21.50;;
54795;SDS011;40693;43.884;20.340;2023-12-04T05:51:44;36.20;;;20.93;;
54795;SDS011;40693;43.884;20.340;2023-12-04T05:54:09;36.70;;;19.33;;
54795;SDS011;40693;43.884;20.340;2023-12-04T05:56:35;40.73;;;20.00;;
54795;SDS011;40693;43.884;20.340;2023-12-04T05:59:01;50.33;;;23.47;;
54795;SDS011;40693;43.884;20.340;2023-12-04T06:01:27;33.10;;;21.10;;
54795;SDS011;40693;43.884;20.340;2023-12-04T06:03:52;29.50;;;16.43;;
54795;SDS011;40693;43.884;20.340;2023-12-04T06:06:18;30.50;;;13.77;;
54795;SDS011;40693;43.884;20.340;2023-12-04T06:08:44;36.37;;;20.23;;
54795;SDS011;40693;43.884;20.340;2023-12-04T06:11:10;31.20;;;17.57;;
54795;SDS011;40693;43.884;20.340;2023-12-04T06:13:35;27.83;;;15.53;;
54795;SDS011;40693;43.884;20.340;2023-12-04T06:16:01;27.00;;;17.30;;
54795;SDS011;40693;43.884;20.340;2023-12-04T06:18:27;33.13;;;20.07;;
54795;SDS011;40693;43.884;20.340;2023-12-04T06:20:53;38.27;;;20.73;;
54795;SDS011;40693;43.884;20.340;2023-12-04T06:23:18;28.73;;;17.80;;
54795;SDS011;40693;43.884;20.340;2023-12-04T06:25:44;32.37;;;18.33;;
54795;SDS011;40693;43.884;20.340;2023-12-04T06:28:10;35.63;;;18.57;;
54795;SDS011;40693;43.884;20.340;2023-12-04T06:30:37;28.43;;;17.23;;
54795;SDS011;40693;43.884;20.340;2023-12-04T06:33:03;36.67;;;21.90;;
54795;SDS011;40693;43.884;20.340;2023-12-04T06:35:29;34.73;;;20.40;;
54795;SDS011;40693;43.884;20.340;2023-12-04T06:37:55;38.87;;;22.07;;
54795;SDS011;40693;43.884;20.340;2023-12-04T06:40:30;41.90;;;22.40;;
54795;SDS011;40693;43.884;20.340;2023-12-04T06:42:57;38.40;;;22.23;;
54795;SDS011;40693;43.884;20.340;2023-12-04T06:45:23;33.37;;;19.70;;
54795;SDS011;40693;43.884;20.340;2023-12-04T06:47:50;30.00;;;15.70;;
54795;SDS011;40693;43.884;20.340;2023-12-04T06:50:16;43.80;;;22.73;;
54795;SDS011;40693;43.884;20.340;2023-12-04T06:52:42;55.50;;;32.80;;
54795;SDS011;40693;43.884;20.340;2023-12-04T06:55:08;36.20;;;21.80;;
54795;SDS011;40693;43.884;20.340;2023-12-04T06:57:34;42.13;;;21.97;;
54795;SDS011;40693;43.884;20.340;2023-12-04T07:00:00;75.67;;;42.53;;
54795;SDS011;40693;43.884;20.340;2023-12-04T07:02:25;41.77;;;24.43;;
54795;SDS011;40693;43.884;20.340;2023-12-04T07:04:51;54.50;;;21.87;;
54795;SDS011;40693;43.884;20.340;2023-12-04T07:07:17;35.30;;;21.47;;
54795;SDS011;40693;43.884;20.340;2023-12-04T07:09:43;39.03;;;21.60;;
54795;SDS011;40693;43.884;20.340;2023-12-04T07:12:09;23.13;;;15.90;;
54795;SDS011;40693;43.884;20.340;2023-12-04T07:14:34;24.10;;;16.70;;
54795;SDS011;40693;43.884;20.340;2023-12-04T07:17:00;32.10;;;17.87;;
54795;SDS011;40693;43.884;20.340;2023-12-04T07:19:26;29.90;;;16.83;;
54795;SDS011;40693;43.884;20.340;2023-12-04T07:21:52;32.40;;;18.30;;
54795;SDS011;40693;43.884;20.340;2023-12-04T07:24:18;37.77;;;20.70;;
54795;SDS011;40693;43.884;20.340;2023-12-04T07:26:43;42.13;;;24.47;;
54795;SDS011;40693;43.884;20.340;2023-12-04T07:29:09;40.07;;;24.60;;
54795;SDS011;40693;43.884;20.340;2023-12-04T07:31:36;43.07;;;25.40;;
54795;SDS011;40693;43.884;20.340;2023-12-04T07:34:02;38.93;;;24.40;;
54795;SDS011;40693;43.884;20.340;2023-12-04T07:36:28;43.27;;;25.00;;
54795;SDS011;40693;43.884;20.340;2023-12-04T07:38:54;46.47;;;25.60;;
54795;SDS011;40693;43.884;20.340;2023-12-04T07:41:20;47.90;;;29.73;;
54795;SDS011;40693;43.884;20.340;2023-12-04T07:43:47;72.17;;;36.63;;
54795;SDS011;40693;43.884;20.340;2023-12-04T07:46:12;79.53;;;40.23;;
54795;SDS011;40693;43.884;20.340;2023-12-04T07:48:39;72.83;;;43.33;;
54795;SDS011;40693;43.884;20.340;2023-12-04T07:51:05;70.63;;;37.33;;
54795;SDS011;40693;43.884;20.340;2023-12-04T07:53:32;64.87;;;37.13;;
54795;SDS011;40693;43.884;20.340;2023-12-04T07:56:02;63.33;;;37.53;;
54795;SDS011;40693;43.884;20.340;2023-12-04T07:58:32;60.10;;;34.47;;
54795;SDS011;40693;43.884;20.340;2023-12-04T08:00:58;61.17;;;36.63;;
54795;SDS011;40693;43.884;20.340;2023-12-04T08:03:24;59.90;;;35.17;;
54795;SDS011;40693;43.884;20.340;2023-12-04T08:05:52;66.60;;;38.57;;
54795;SDS011;40693;43.884;20.340;2023-12-04T08:08:18;51.33;;;28.93;;
54795;SDS011;40693;43.884;20.340;2023-12-04T08:10:44;45.70;;;25.20;;
54795;SDS011;40693;43.884;20.340;2023-12-04T08:13:10;36.63;;;21.97;;
54795;SDS011;40693;43.884;20.340;2023-12-04T08:15:36;29.63;;;16.67;;
54795;SDS011;40693;43.884;20.340;2023-12-04T08:18:01;44.50;;;24.27;;
54795;SDS011;40693;43.884;20.340;2023-12-04T08:20:27;53.03;;;29.77;;
54795;SDS011;40693;43.884;20.340;2023-12-04T08:22:53;56.10;;;30.50;;
54795;SDS011;40693;43.884;20.340;2023-12-04T08:25:20;47.17;;;28.67;;
54795;SDS011;40693;43.884;20.340;2023-12-04T08:27:45;55.70;;;28.80;;
54795;SDS011;40693;43.884;20.340;2023-12-04T08:30:13;47.40;;;27.97;;
54795;SDS011;40693;43.884;20.340;2023-12-04T08:32:39;56.17;;;29.20;;
54795;SDS011;40693;43.884;20.340;2023-12-04T08:35:04;42.53;;;26.37;;
54795;SDS011;40693;43.884;20.340;2023-12-04T08:37:31;44.93;;;27.00;;
54795;SDS011;40693;43.884;20.340;2023-12-04T08:39:57;38.60;;;24.57;;
54795;SDS011;40693;43.884;20.340;2023-12-04T08:42:22;40.97;;;23.43;;
54795;SDS011;40693;43.884;20.340;2023-12-04T08:44:48;42.47;;;24.77;;
54795;SDS011;40693;43.884;20.340;2023-12-04T08:47:14;37.30;;;23.13;;
54795;SDS011;40693;43.884;20.340;2023-12-04T08:49:40;46.70;;;26.65;;
54795;SDS011;40693;43.884;20.340;2023-12-04T08:52:09;42.28;;;27.55;;
54795;SDS011;40693;43.884;20.340;2023-12-04T08:54:38;40.20;;;22.33;;
54795;SDS011;40693;43.884;20.340;2023-12-04T08:57:05;39.53;;;24.88;;
54795;SDS011;40693;43.884;20.340;2023-12-04T08:59:31;40.20;;;27.77;;
54795;SDS011;40693;43.884;20.340;2023-12-04T09:01:57;27.55;;;17.90;;
54795;SDS011;40693;43.884;20.340;2023-12-04T09:04:23;26.92;;;19.15;;
54795;SDS011;40693;43.884;20.340;2023-12-04T09:06:49;33.30;;;25.10;;
54795;SDS011;40693;43.884;20.340;2023-12-04T09:09:14;36.25;;;26.10;;
54795;SDS011;40693;43.884;20.340;2023-12-04T09:11:41;36.72;;;23.80;;
54795;SDS011;40693;43.884;20.340;2023-12-04T09:14:07;24.95;;;18.90;;
54795;SDS011;40693;43.884;20.340;2023-12-04T09:16:33;28.58;;;21.23;;
54795;SDS011;40693;43.884;20.340;2023-12-04T09:18:59;34.53;;;25.60;;
54795;SDS011;40693;43.884;20.340;2023-12-04T09:21:25;42.20;;;26.65;;
54795;SDS011;40693;43.884;20.340;2023-12-04T09:23:51;31.90;;;22.30;;
54795;SDS011;40693;43.884;20.340;2023-12-04T09:26:18;44.80;;;31.02;;
54795;SDS011;40693;43.884;20.340;2023-12-04T09:28:43;29.50;;;21.92;;
54795;SDS011;40693;43.884;20.340;2023-12-04T09:31:09;26.00;;;20.20;;
54795;SDS011;40693;43.884;20.340;2023-12-04T09:33:35;32.58;;;24.25;;
54795;SDS011;40693;43.884;20.340;2023-12-04T09:36:01;23.40;;;19.58;;
54795;SDS011;40693;43.884;20.340;2023-12-04T09:38:28;20.63;;;15.93;;
54795;SDS011;40693;43.884;20.340;2023-12-04T09:40:54;19.60;;;15.40;;
54795;SDS011;40693;43.884;20.340;2023-12-04T09:43:24;19.42;;;15.40;;
54795;SDS011;40693;43.884;20.340;2023-12-04T09:45:51;18.65;;;15.38;;
54795;SDS011;40693;43.884;20.340;2023-12-04T09:48:17;19.05;;;14.35;;
54795;SDS011;40693;43.884;20.340;2023-12-04T09:50:42;24.70;;;21.02;;
54795;SDS011;40693;43.884;20.340;2023-12-04T09:53:10;30.70;;;25.17;;
54795;SDS011;40693;43.884;20.340;2023-12-04T09:55:36;18.67;;;14.43;;
54795;SDS011;40693;43.884;20.340;2023-12-04T09:58:02;21.02;;;16.48;;
54795;SDS011;40693;43.884;20.340;2023-12-04T10:00:29;20.20;;;17.20;;
54795;SDS011;40693;43.884;20.340;2023-12-04T10:02:56;39.90;;;23.83;;
54795;SDS011;40693;43.884;20.340;2023-12-04T10:05:23;20.70;;;18.45;;
54795;SDS011;40693;43.884;20.340;2023-12-04T10:07:48;16.27;;;14.05;;
54795;SDS011;40693;43.884;20.340;2023-12-04T10:10:14;19.95;;;15.45;;
54795;SDS011;40693;43.884;20.340;2023-12-04T10:12:40;22.80;;;18.10;;
54795;SDS011;40693;43.884;20.340;2023-12-04T10:15:08;15.65;;;14.05;;
54795;SDS011;40693;43.884;20.340;2023-12-04T10:17:36;18.90;;;14.23;;
54795;SDS011;40693;43.884;20.340;2023-12-04T10:22:36;19.38;;;17.05;;
54795;SDS011;40693;43.884;20.340;2023-12-04T10:25:16;45.05;;;40.35;;
54795;SDS011;40693;43.884;20.340;2023-12-04T10:27:45;49.75;;;44.55;;
54795;SDS011;40693;43.884;20.340;2023-12-04T10:30:26;71.72;;;63.88;;
54795;SDS011;40693;43.884;20.340;2023-12-04T10:32:56;20.33;;;17.13;;
54795;SDS011;40693;43.884;20.340;2023-12-04T10:35:26;18.60;;;16.23;;
54795;SDS011;40693;43.884;20.340;2023-12-04T10:37:55;19.92;;;15.45;;
54795;SDS011;40693;43.884;20.340;2023-12-04T10:40:25;18.80;;;16.63;;
54795;SDS011;40693;43.884;20.340;2023-12-04T10:43:09;17.77;;;14.48;;
54795;SDS011;40693;43.884;20.340;2023-12-04T10:45:36;17.30;;;14.90;;
54795;SDS011;40693;43.884;20.340;2023-12-04T10:48:03;24.45;;;18.77;;
54795;SDS011;40693;43.884;20.340;2023-12-04T10:50:36;23.13;;;17.08;;
54795;SDS011;40693;43.884;20.340;2023-12-04T10:53:06;22.90;;;17.35;;
54795;SDS011;40693;43.884;20.340;2023-12-04T10:55:33;27.40;;;23.40;;
54795;SDS011;40693;43.884;20.340;2023-12-04T10:58:00;27.90;;;23.70;;
54795;SDS011;40693;43.884;20.340;2023-12-04T11:00:32;34.42;;;26.75;;
54795;SDS011;40693;43.884;20.340;2023-12-04T11:03:02;27.67;;;20.23;;
54795;SDS011;40693;43.884;20.340;2023-12-04T11:05:50;21.75;;;15.82;;
54795;SDS011;40693;43.884;20.340;2023-12-04T11:08:19;29.88;;;22.60;;
54795;SDS011;40693;43.884;20.340;2023-12-04T11:10:59;22.70;;;16.17;;
54795;SDS011;40693;43.884;20.340;2023-12-04T11:13:50;20.52;;;14.65;;
54795;SDS011;40693;43.884;20.340;2023-12-04T11:18:51;27.42;;;19.05;;
54795;SDS011;40693;43.884;20.340;2023-12-04T11:21:39;44.05;;;28.67;;
54795;SDS011;40693;43.884;20.340;2023-12-04T11:24:05;17.00;;;13.93;;
54795;SDS011;40693;43.884;20.340;2023-12-04T11:26:32;42.47;;;31.17;;
54795;SDS011;40693;43.884;20.340;2023-12-04T11:28:59;21.83;;;16.45;;
54795;SDS011;40693;43.884;20.340;2023-12-04T11:31:25;15.80;;;11.95;;
54795;SDS011;40693;43.884;20.340;2023-12-04T11:33:52;17.83;;;12.32;;
54795;SDS011;40693;43.884;20.340;2023-12-04T11:36:18;18.15;;;12.43;;
54795;SDS011;40693;43.884;20.340;2023-12-04T11:38:44;17.23;;;12.27;;
54795;SDS011;40693;43.884;20.340;2023-12-04T11:41:21;24.10;;;17.48;;
54795;SDS011;40693;43.884;20.340;2023-12-04T11:43:48;22.27;;;15.35;;
54795;SDS011;40693;43.884;20.340;2023-12-04T11:46:21;28.38;;;20.15;;
54795;SDS011;40693;43.884;20.340;2023-12-04T11:48:49;25.92;;;18.48;;
54795;SDS011;40693;43.884;20.340;2023-12-04T11:51:45;29.52;;;20.08;;
54795;SDS011;40693;43.884;20.340;2023-12-04T11:54:04;154.88;;;96.32;;
54795;SDS011;40693;43.884;20.340;2023-12-04T11:56:33;110.30;;;71.18;;
54795;SDS011;40693;43.884;20.340;2023-12-04T11:59:06;86.55;;;64.75;;
54795;SDS011;40693;43.884;20.340;2023-12-04T12:01:38;36.97;;;26.20;;
54795;SDS011;40693;43.884;20.340;2023-12-04T12:04:05;24.40;;;17.85;;
54795;SDS011;40693;43.884;20.340;2023-12-04T12:06:31;21.88;;;16.20;;
54795;SDS011;40693;43.884;20.340;2023-12-04T12:08:57;29.10;;;19.25;;
54795;SDS011;40693;43.884;20.340;2023-12-04T12:11:26;27.92;;;18.58;;
54795;SDS011;40693;43.884;20.340;2023-12-04T12:13:55;26.70;;;17.35;;
54795;SDS011;40693;43.884;20.340;2023-12-04T12:16:21;19.92;;;14.20;;
54795;SDS011;40693;43.884;20.340;2023-12-04T12:18:47;32.75;;;20.70;;
54795;SDS011;40693;43.884;20.340;2023-12-04T12:21:12;27.48;;;20.55;;
54795;SDS011;40693;43.884;20.340;2023-12-04T12:23:39;28.65;;;18.15;;
54795;SDS011;40693;43.884;20.340;2023-12-04T12:26:05;21.52;;;16.90;;
54795;SDS011;40693;43.884;20.340;2023-12-04T12:28:31;25.50;;;16.58;;
54795;SDS011;40693;43.884;20.340;2023-12-04T12:31:03;28.05;;;16.17;;
54795;SDS011;40693;43.884;20.340;2023-12-04T12:33:29;54.25;;;33.20;;
54795;SDS011;40693;43.884;20.340;2023-12-04T12:35:55;33.10;;;19.10;;
54795;SDS011;40693;43.884;20.340;2023-12-04T12:38:21;69.80;;;43.50;;
54795;SDS011;40693;43.884;20.340;2023-12-04T12:40:47;71.30;;;41.28;;
54795;SDS011;40693;43.884;20.340;2023-12-04T12:43:12;80.97;;;48.78;;
54795;SDS011;40693;43.884;20.340;2023-12-04T12:45:39;76.13;;;46.33;;
54795;SDS011;40693;43.884;20.340;2023-12-04T12:48:14;51.38;;;31.90;;
54795;SDS011;40693;43.884;20.340;2023-12-04T12:50:42;43.55;;;27.52;;
54795;SDS011;40693;43.884;20.340;2023-12-04T12:53:08;81.00;;;49.72;;
54795;SDS011;40693;43.884;20.340;2023-12-04T12:55:43;25.88;;;16.95;;
54795;SDS011;40693;43.884;20.340;2023-12-04T12:58:11;139.43;;;73.22;;
54795;SDS011;40693;43.884;20.340;2023-12-04T13:00:40;36.30;;;22.25;;
54795;SDS011;40693;43.884;20.340;2023-12-04T13:03:14;34.22;;;23.33;;
54795;SDS011;40693;43.884;20.340;2023-12-04T13:05:43;40.47;;;26.63;;
54795;SDS011;40693;43.884;20.340;2023-12-04T13:08:09;28.95;;;19.90;;
54795;SDS011;40693;43.884;20.340;2023-12-04T13:10:36;36.22;;;22.23;;
54795;SDS011;40693;43.884;20.340;2023-12-04T13:13:02;37.47;;;22.90;;
54795;SDS011;40693;43.884;20.340;2023-12-04T13:15:28;27.45;;;16.77;;
54795;SDS011;40693;43.884;20.340;2023-12-04T13:17:54;28.30;;;18.48;;
54795;SDS011;40693;43.884;20.340;2023-12-04T13:20:21;31.45;;;21.73;;
54795;SDS011;40693;43.884;20.340;2023-12-04T13:22:48;35.00;;;24.27;;
54795;SDS011;40693;43.884;20.340;2023-12-04T13:25:14;23.25;;;16.05;;
54795;SDS011;40693;43.884;20.340;2023-12-04T13:27:40;35.10;;;22.63;;
54795;SDS011;40693;43.884;20.340;2023-12-04T13:30:06;30.65;;;20.02;;
54795;SDS011;40693;43.884;20.340;2023-12-04T13:32:34;27.33;;;17.42;;
54795;SDS011;40693;43.884;20.340;2023-12-04T13:35:01;24.10;;;16.33;;
54795;SDS011;40693;43.884;20.340;2023-12-04T13:37:27;28.98;;;19.67;;
54795;SDS011;40693;43.884;20.340;2023-12-04T13:39:53;37.72;;;22.95;;
54795;SDS011;40693;43.884;20.340;2023-12-04T13:42:31;32.15;;;21.83;;
54795;SDS011;40693;43.884;20.340;2023-12-04T13:45:16;41.67;;;26.13;;
54795;SDS011;40693;43.884;20.340;2023-12-04T13:47:42;27.52;;;19.17;;
54795;SDS011;40693;43.884;20.340;2023-12-04T13:50:09;33.05;;;24.40;;
54795;SDS011;40693;43.884;20.340;2023-12-04T13:52:35;33.75;;;21.35;;
54795;SDS011;40693;43.884;20.340;2023-12-04T13:55:01;45.60;;;25.60;;
54795;SDS011;40693;43.884;20.340;2023-12-04T13:57:36;47.42;;;24.95;;
54795;SDS011;40693;43.884;20.340;2023-12-04T14:02:35;24.48;;;16.48;;
54795;SDS011;40693;43.884;20.340;2023-12-04T14:05:02;55.47;;;32.65;;
54795;SDS011;40693;43.884;20.340;2023-12-04T14:07:28;34.95;;;21.58;;
54795;SDS011;40693;43.884;20.340;2023-12-04T14:09:54;36.50;;;24.70;;
54795;SDS011;40693;43.884;20.340;2023-12-04T14:12:20;36.85;;;22.20;;
54795;SDS011;40693;43.884;20.340;2023-12-04T14:14:46;54.72;;;33.53;;
54795;SDS011;40693;43.884;20.340;2023-12-04T14:17:13;57.55;;;31.63;;
54795;SDS011;40693;43.884;20.340;2023-12-04T14:19:39;55.55;;;26.77;;